Time;durP1;ratioP1;P1;durP2;ratioP2;P2;SDS_P1;SDS_P2;PMS_P1;PMS_P2;Temp;Humidity;BMP_temperature;BMP_pressure;BME280_temperature;BME280_humidity;BME280_pressure;Samples;Min_cycle;Max_cycle;Signal;HPM_P1;HPM_P2
2023/01/21 00:02:19;;;;;;;65.82;26.30;;;2.40;99.10;;;;;;5011834;28;20034;-80
2023/01/21 00:04:45;;;;;;;49.72;19.77;;;2.40;99.10;;;;;;5011375;28;20325;-79
2023/01/21 00:07:11;;;;;;;47.30;19.67;;;2.40;99.20;;;;;;5010829;28;20481;-79
2023/01/21 00:09:37;;;;;;;45.20;20.08;;;2.40;99.00;;;;;;5011355;28;20038;-81
2023/01/21 00:12:03;;;;;;;52.28;20.35;;;2.40;99.10;;;;;;5011051;28;20021;-81
2023/01/21 00:14:30;;;;;;;59.80;23.70;;;2.40;99.10;;;;;;5010485;28;20136;-81
2023/01/21 00:16:57;;;;;;;52.60;22.65;;;2.40;99.10;;;;;;5009900;28;20034;-81
2023/01/21 00:19:23;;;;;;;65.37;27.43;;;2.50;99.00;;;;;;5010002;28;20053;-81
2023/01/21 00:21:49;;;;;;;71.28;29.52;;;2.50;99.00;;;;;;5010179;28;20259;-81
2023/01/21 00:24:14;;;;;;;70.57;27.75;;;2.50;98.80;;;;;;5009910;28;20524;-81
2023/01/21 00:26:40;;;;;;;53.55;24.25;;;2.50;99.00;;;;;;5010284;28;20077;-81
2023/01/21 00:29:06;;;;;;;59.13;22.65;;;2.60;99.00;;;;;;5009887;28;20492;-80
2023/01/21 00:31:32;;;;;;;59.85;23.88;;;2.50;99.10;;;;;;5011117;28;20467;-82
2023/01/21 00:33:57;;;;;;;49.60;21.98;;;2.60;98.90;;;;;;5010495;28;20030;-80
2023/01/21 00:36:28;;;;;;;52.63;22.95;;;2.70;99.00;;;;;;5011088;28;20030;-80
2023/01/21 00:38:55;;;;;;;54.45;23.30;;;2.70;99.00;;;;;;5011421;28;20116;-83
2023/01/21 00:41:23;;;;;;;50.67;22.23;;;2.70;99.00;;;;;;5010113;28;20523;-83
2023/01/21 00:43:49;;;;;;;50.85;21.95;;;2.80;99.00;;;;;;5010093;28;20026;-81
2023/01/21 00:46:15;;;;;;;48.92;21.38;;;2.80;98.90;;;;;;5009956;28;20498;-83
2023/01/21 00:48:41;;;;;;;46.47;20.55;;;2.80;98.80;;;;;;5012475;28;20149;-81
2023/01/21 00:51:07;;;;;;;55.15;22.92;;;2.80;98.80;;;;;;5013793;28;20121;-83
2023/01/21 00:53:34;;;;;;;57.42;22.65;;;2.80;98.70;;;;;;5015209;28;20030;-81
2023/01/21 00:56:02;;;;;;;50.80;21.55;;;2.70;98.90;;;;;;5016022;28;20041;-81
2023/01/21 00:58:29;;;;;;;58.83;26.88;;;2.70;99.00;;;;;;5016389;28;20026;-82
2023/01/21 01:01:10;;;;;;;58.08;26.75;;;2.60;98.90;;;;;;5015052;28;20375;-82
2023/01/21 01:03:37;;;;;;;54.00;23.40;;;2.50;98.80;;;;;;5014063;28;20025;-82
2023/01/21 01:06:15;;;;;;;53.33;22.55;;;2.50;98.70;;;;;;5013392;28;20261;-82
2023/01/21 01:08:41;;;;;;;52.55;22.20;;;2.50;98.80;;;;;;5014112;28;20364;-81
2023/01/21 01:11:07;;;;;;;55.22;23.40;;;2.40;98.80;;;;;;5013951;28;20034;-79
2023/01/21 01:13:34;;;;;;;50.65;21.88;;;2.50;98.90;;;;;;5013938;28;20049;-81
2023/01/21 01:16:01;;;;;;;53.08;22.77;;;2.40;98.90;;;;;;5013960;28;20030;-81
2023/01/21 01:18:28;;;;;;;50.17;21.00;;;2.60;99.10;;;;;;5013249;28;20435;-80
2023/01/21 01:20:54;;;;;;;48.10;21.30;;;2.50;98.90;;;;;;5013384;28;20345;-82
2023/01/21 01:23:20;;;;;;;53.58;20.88;;;2.50;99.00;;;;;;5014495;28;20317;-83
2023/01/21 01:26:13;;;;;;;41.95;19.85;;;2.60;99.10;;;;;;5014601;28;20074;-83
2023/01/21 01:28:39;;;;;;;47.60;19.08;;;2.70;98.90;;;;;;5013635;28;20057;-84
2023/01/21 01:31:07;;;;;;;44.92;20.02;;;2.70;98.80;;;;;;5014034;28;20385;-84
2023/01/21 01:33:33;;;;;;;48.25;19.95;;;2.80;98.70;;;;;;5015318;28;20076;-82
2023/01/21 01:36:05;;;;;;;47.08;20.20;;;2.90;98.60;;;;;;5016198;28;20113;-84
2023/01/21 01:38:33;;;;;;;47.85;19.27;;;2.90;98.60;;;;;;5016215;28;20049;-84
2023/01/21 01:40:59;;;;;;;45.38;18.48;;;2.90;98.70;;;;;;5014095;28;20026;-84
2023/01/21 01:43:53;;;;;;;41.80;19.40;;;2.90;98.70;;;;;;5012736;28;20037;-82
2023/01/21 01:46:19;;;;;;;45.90;19.23;;;2.90;98.80;;;;;;4995480;28;20033;-83
2023/01/21 01:48:51;;;;;;;49.80;19.88;;;2.90;98.90;;;;;;5014986;28;20120;-85
2023/01/21 01:51:21;;;;;;;46.83;18.92;;;2.90;98.90;;;;;;5015306;28;20030;-83
2023/01/21 01:53:47;;;;;;;43.20;18.85;;;3.00;98.80;;;;;;5014347;28;20063;-83
2023/01/21 01:56:14;;;;;;;43.42;19.30;;;3.00;98.90;;;;;;5016658;28;20457;-83
2023/01/21 01:58:41;;;;;;;43.22;18.95;;;3.00;98.60;;;;;;5018785;28;20036;-84
2023/01/21 02:01:07;;;;;;;41.92;17.70;;;3.00;98.70;;;;;;5017907;28;20030;-81
2023/01/21 02:03:44;;;;;;;47.88;19.63;;;3.00;98.70;;;;;;5015825;28;20030;-79
2023/01/21 02:06:14;;;;;;;41.90;19.20;;;3.10;98.60;;;;;;5014178;28;20033;-80
2023/01/21 02:08:43;;;;;;;48.67;17.63;;;3.20;98.50;;;;;;5016408;28;20266;-79
2023/01/21 02:11:13;;;;;;;48.58;19.42;;;3.20;98.50;;;;;;5014736;28;20061;-80
2023/01/21 02:13:42;;;;;;;39.85;17.15;;;3.40;98.50;;;;;;5014243;28;20057;-80
2023/01/21 02:16:32;;;;;;;42.58;17.25;;;3.10;98.40;;;;;;5013947;28;20042;-79
2023/01/21 02:19:19;;;;;;;39.35;17.60;;;3.20;98.40;;;;;;5014868;28;20030;-83
2023/01/21 02:22:03;;;;;;;43.08;19.52;;;3.20;98.30;;;;;;5012973;28;20033;-81
2023/01/21 02:24:44;;;;;;;35.97;16.52;;;3.20;98.30;;;;;;5011937;28;20041;-80
2023/01/21 02:27:19;;;;;;;43.50;18.23;;;3.30;98.40;;;;;;5012340;28;20061;-80
2023/01/21 02:30:03;;;;;;;39.65;17.00;;;3.30;98.30;;;;;;5012936;28;20026;-79
2023/01/21 02:32:56;;;;;;;38.40;17.27;;;3.30;98.30;;;;;;5012264;28;20041;-80
2023/01/21 02:35:58;;;;;;;39.35;17.13;;;3.30;98.40;;;;;;5006611;28;20030;-81
2023/01/21 02:38:42;;;;;;;42.88;18.70;;;3.30;98.40;;;;;;4990517;28;20034;-80
2023/01/21 02:41:26;;;;;;;36.75;15.85;;;3.30;98.30;;;;;;4992571;28;20033;-83
2023/01/21 02:44:16;;;;;;;35.13;16.25;;;3.40;98.30;;;;;;4992535;28;20361;-82
2023/01/21 02:46:51;;;;;;;35.95;16.23;;;3.40;98.30;;;;;;4992657;28;20108;-82
2023/01/21 02:49:35;;;;;;;35.88;16.33;;;3.30;98.20;;;;;;4992645;28;20369;-83
2023/01/21 02:52:00;;;;;;;40.50;16.10;;;3.40;98.30;;;;;;4992403;28;20062;-82
2023/01/21 02:54:38;;;;;;;33.38;15.48;;;3.40;98.30;;;;;;4992593;28;20360;-82
2023/01/21 02:57:16;;;;;;;37.95;16.35;;;3.50;98.30;;;;;;4992731;28;20054;-82
2023/01/21 02:59:46;;;;;;;38.40;15.57;;;3.30;98.30;;;;;;4991499;28;20049;-82
2023/01/21 03:02:51;;;;;;;37.47;14.93;;;3.30;98.50;;;;;;4991038;28;20030;-81
2023/01/21 03:05:28;;;;;;;35.83;15.77;;;3.30;98.50;;;;;;4992822;28;20027;-83
2023/01/21 03:08:07;;;;;;;38.80;15.57;;;3.20;98.70;;;;;;4991178;28;20100;-81
2023/01/21 03:10:41;;;;;;;33.63;15.02;;;3.10;98.80;;;;;;4991475;28;20044;-81
2023/01/21 03:16:55;;;;;;;35.08;15.60;;;3.10;99.00;;;;;;4992270;28;20042;-82
2023/01/21 03:18:56;;;;;;;37.95;16.05;;;3.10;99.10;;;;;;4992185;28;20074;-81
2023/01/21 03:21:26;;;;;;;36.63;15.48;;;3.10;99.30;;;;;;4992486;28;20029;-81
2023/01/21 03:23:54;;;;;;;39.22;16.83;;;3.20;99.40;;;;;;4991592;28;20037;-81
2023/01/21 03:26:26;;;;;;;37.88;16.50;;;3.30;99.40;;;;;;4990740;28;20130;-81
2023/01/21 03:28:56;;;;;;;36.55;16.25;;;3.30;99.20;;;;;;4991872;28;20180;-81
2023/01/21 03:31:32;;;;;;;35.80;14.90;;;3.20;99.30;;;;;;4990109;28;20132;-81
2023/01/21 03:34:01;;;;;;;39.25;16.05;;;3.20;99.20;;;;;;4992157;28;20036;-82
2023/01/21 03:36:41;;;;;;;34.45;14.52;;;3.20;99.40;;;;;;4992179;28;20786;-80
2023/01/21 03:39:19;;;;;;;33.25;14.68;;;3.20;99.30;;;;;;4992054;28;20026;-80
2023/01/21 03:41:45;;;;;;;;;;;3.20;99.40;;;;;;4992659;28;20448;-83
2023/01/21 03:44:11;;;;;;;38.58;15.88;;;3.20;99.50;;;;;;4992034;28;19914;-81
2023/01/21 03:46:56;;;;;;;34.70;14.88;;;3.20;99.50;;;;;;4990453;28;20027;-80
2023/01/21 03:49:33;;;;;;;31.20;14.18;;;3.20;99.60;;;;;;4992002;28;20022;-82
2023/01/21 03:52:01;;;;;;;31.15;14.52;;;3.50;99.50;;;;;;4991691;28;20125;-81
2023/01/21 03:54:27;;;;;;;35.97;15.13;;;3.40;99.20;;;;;;4990600;28;20030;-81
2023/01/21 03:56:53;;;;;;;41.97;16.83;;;3.50;99.20;;;;;;4992545;28;20392;-81
2023/01/21 03:59:18;;;;;;;39.08;16.73;;;3.50;99.40;;;;;;4991743;28;20033;-81
2023/01/21 04:01:44;;;;;;;39.47;15.68;;;3.40;99.50;;;;;;4991755;28;20023;-81
2023/01/21 04:04:10;;;;;;;37.20;15.45;;;3.50;99.60;;;;;;4990545;28;20605;-80
2023/01/21 04:06:36;;;;;;;33.63;15.77;;;3.30;99.60;;;;;;4990567;28;20038;-79
2023/01/21 04:09:06;;;;;;;34.75;15.40;;;3.30;99.70;;;;;;4990922;28;20141;-80
2023/01/21 04:11:32;;;;;;;34.42;15.88;;;3.30;99.70;;;;;;4990671;28;20030;-81
2023/01/21 04:13:58;;;;;;;39.00;15.90;;;3.40;99.70;;;;;;4990782;28;20065;-79
2023/01/21 04:16:24;;;;;;;37.97;16.73;;;3.60;99.60;;;;;;4990481;28;20384;-79
2023/01/21 04:18:50;;;;;;;38.97;15.00;;;3.30;99.70;;;;;;4991648;28;20040;-80
2023/01/21 04:21:15;;;;;;;36.22;15.73;;;3.40;99.80;;;;;;4990906;28;20019;-80
2023/01/21 04:23:41;;;;;;;35.80;15.63;;;3.40;99.90;;;;;;4994573;28;20015;-80
2023/01/21 04:26:07;;;;;;;33.90;15.13;;;3.40;99.90;;;;;;4995249;28;20050;-79
2023/01/21 04:28:33;;;;;;;39.90;16.63;;;3.40;99.60;;;;;;4993903;28;20125;-78
2023/01/21 04:30:59;;;;;;;36.95;14.27;;;3.50;99.60;;;;;;4994383;28;20113;-79
2023/01/21 04:33:25;;;;;;;35.28;15.85;;;3.60;99.70;;;;;;4994960;28;20353;-80
2023/01/21 04:35:50;;;;;;;41.08;16.20;;;3.70;99.60;;;;;;4995315;28;20026;-79
2023/01/21 04:38:17;;;;;;;34.60;14.93;;;3.80;99.20;;;;;;4994080;28;20026;-80
2023/01/21 04:40:43;;;;;;;30.60;15.07;;;3.80;99.00;;;;;;4993879;28;20472;-82
2023/01/21 04:43:09;;;;;;;30.45;14.07;;;3.90;99.20;;;;;;4995008;28;20034;-81
2023/01/21 04:45:35;;;;;;;33.08;15.50;;;3.90;98.60;;;;;;4994179;28;20041;-83
2023/01/21 04:48:00;;;;;;;39.03;16.23;;;3.90;98.50;;;;;;4995814;28;20029;-82
2023/01/21 04:50:26;;;;;;;32.55;13.75;;;3.90;98.50;;;;;;4993172;28;20027;-82
2023/01/21 04:52:52;;;;;;;29.65;13.35;;;3.90;98.40;;;;;;4994445;28;20081;-81
2023/01/21 04:55:17;;;;;;;36.17;14.70;;;3.90;98.60;;;;;;4993667;28;20037;-83
2023/01/21 04:57:43;;;;;;;35.13;14.48;;;3.90;98.50;;;;;;4994675;28;20034;-81
2023/01/21 05:00:09;;;;;;;37.72;14.77;;;4.00;98.50;;;;;;4994889;28;20026;-80
2023/01/21 05:02:35;;;;;;;33.13;14.52;;;4.00;98.60;;;;;;4994152;28;20487;-82
2023/01/21 05:05:01;;;;;;;39.53;15.13;;;4.00;98.50;;;;;;4994773;28;20042;-83
2023/01/21 05:07:27;;;;;;;38.58;15.50;;;4.10;98.50;;;;;;4993692;28;20062;-82
2023/01/21 05:09:52;;;;;;;35.22;15.30;;;3.90;98.50;;;;;;4993432;28;20034;-82
2023/01/21 05:12:18;;;;;;;30.95;14.15;;;4.00;98.60;;;;;;4994682;28;20035;-82
2023/01/21 05:14:44;;;;;;;37.10;15.02;;;4.10;98.60;;;;;;4993823;28;20018;-81
2023/01/21 05:17:10;;;;;;;36.22;15.25;;;4.00;98.60;;;;;;4994379;28;20041;-81
2023/01/21 05:19:36;;;;;;;33.55;15.18;;;3.90;98.70;;;;;;4993523;28;20022;-81
2023/01/21 05:22:01;;;;;;;31.63;14.50;;;4.00;98.80;;;;;;4994190;28;20064;-80
2023/01/21 05:24:27;;;;;;;31.40;13.52;;;4.00;98.70;;;;;;4994408;28;20080;-80
2023/01/21 05:26:52;;;;;;;32.50;15.07;;;4.10;98.60;;;;;;4994301;28;20373;-80
2023/01/21 05:29:18;;;;;;;37.05;15.52;;;4.10;98.50;;;;;;4993985;28;20088;-80
2023/01/21 05:31:44;;;;;;;31.17;14.55;;;4.10;98.60;;;;;;4993278;28;20042;-81
2023/01/21 05:34:10;;;;;;;32.63;14.63;;;4.00;98.50;;;;;;4993384;28;20030;-82
2023/01/21 05:36:36;;;;;;;26.95;12.75;;;4.00;98.60;;;;;;4994088;28;20038;-82
2023/01/21 05:39:02;;;;;;;35.75;15.52;;;3.90;98.70;;;;;;4993506;28;20497;-81
2023/01/21 05:41:28;;;;;;;37.70;14.23;;;3.90;98.90;;;;;;4994121;28;20373;-81
2023/01/21 05:43:53;;;;;;;34.38;14.60;;;3.90;98.90;;;;;;4993564;28;20038;-82
2023/01/21 05:46:19;;;;;;;38.67;14.77;;;3.90;99.00;;;;;;4994010;28;20437;-81
2023/01/21 05:48:45;;;;;;;33.22;14.68;;;4.00;99.00;;;;;;4993002;28;20497;-81
2023/01/21 05:51:10;;;;;;;33.17;13.82;;;4.00;98.90;;;;;;4993763;28;20489;-81
2023/01/21 05:53:36;;;;;;;28.70;12.88;;;4.00;98.80;;;;;;4994388;28;20026;-80
2023/01/21 05:56:02;;;;;;;32.85;14.30;;;4.00;98.80;;;;;;4993383;28;20422;-79
2023/01/21 05:58:28;;;;;;;37.22;14.82;;;4.00;99.10;;;;;;4993689;28;20043;-81
2023/01/21 06:00:55;;;;;;;32.83;14.82;;;4.10;98.80;;;;;;4993481;28;20045;-79
2023/01/21 06:03:21;;;;;;;32.60;14.07;;;4.10;98.60;;;;;;4993458;28;20034;-78
2023/01/21 06:05:48;;;;;;;33.25;13.75;;;4.10;98.70;;;;;;4993935;28;20019;-80
2023/01/21 06:08:14;;;;;;;34.40;13.98;;;4.10;98.60;;;;;;4993619;28;20030;-81
2023/01/21 06:10:40;;;;;;;30.02;13.82;;;4.10;98.50;;;;;;4992654;28;20064;-78
2023/01/21 06:13:06;;;;;;;29.40;13.98;;;4.10;98.50;;;;;;4993454;28;20026;-79
2023/01/21 06:15:32;;;;;;;29.70;14.07;;;4.20;98.50;;;;;;4993362;28;20377;-80
2023/01/21 06:17:59;;;;;;;29.63;13.35;;;4.20;98.30;;;;;;4992821;28;20050;-80
2023/01/21 06:20:29;;;;;;;31.52;14.25;;;4.20;98.30;;;;;;4993387;28;20305;-80
2023/01/21 06:22:55;;;;;;;36.42;13.80;;;4.20;98.30;;;;;;4993014;28;20030;-80
2023/01/21 06:25:21;;;;;;;34.13;14.93;;;4.10;98.40;;;;;;4992725;28;20381;-81
2023/01/21 06:27:47;;;;;;;29.90;13.80;;;4.20;98.40;;;;;;4992834;28;20039;-81
2023/01/21 06:30:13;;;;;;;31.35;15.05;;;4.20;98.50;;;;;;4992834;28;20061;-79
2023/01/21 06:32:39;;;;;;;32.03;15.93;;;4.20;98.50;;;;;;4993349;28;20541;-79
2023/01/21 06:35:05;;;;;;;35.85;14.77;;;4.10;98.40;;;;;;4991791;28;20031;-80
2023/01/21 06:37:31;;;;;;;34.10;14.23;;;4.20;98.50;;;;;;4992791;28;20038;-81
2023/01/21 06:39:56;;;;;;;38.13;15.80;;;4.20;98.70;;;;;;4992656;28;20397;-79
2023/01/21 06:42:22;;;;;;;35.60;15.63;;;4.20;98.40;;;;;;4991366;28;20054;-81
2023/01/21 06:44:48;;;;;;;34.45;14.50;;;4.10;98.60;;;;;;4991295;28;20485;-81
2023/01/21 06:47:13;;;;;;;31.67;14.45;;;4.10;98.60;;;;;;4992607;28;20038;-80
2023/01/21 06:49:39;;;;;;;31.80;15.30;;;4.10;98.70;;;;;;4992590;28;20038;-81
2023/01/21 06:52:05;;;;;;;39.25;16.02;;;4.10;98.80;;;;;;4992484;28;20022;-82
2023/01/21 06:54:31;;;;;;;37.20;15.52;;;4.10;98.80;;;;;;4992274;28;20030;-82
2023/01/21 06:56:57;;;;;;;34.92;14.90;;;4.10;98.80;;;;;;4992823;28;20117;-82
2023/01/21 06:59:23;;;;;;;49.30;17.48;;;4.10;98.90;;;;;;4992949;28;20114;-82
2023/01/21 07:01:49;;;;;;;40.35;16.38;;;4.10;98.90;;;;;;4992437;28;20464;-83
2023/01/21 07:04:14;;;;;;;46.70;17.48;;;4.20;98.90;;;;;;4992588;28;20337;-84
2023/01/21 07:06:40;;;;;;;38.17;16.17;;;4.00;99.00;;;;;;4992620;28;20350;-80
2023/01/21 07:09:07;;;;;;;39.97;16.60;;;4.00;99.20;;;;;;4991627;28;20080;-82
2023/01/21 07:11:33;;;;;;;37.00;15.90;;;4.10;99.20;;;;;;4992098;28;20520;-81
2023/01/21 07:14:00;;;;;;;42.25;17.90;;;4.10;99.10;;;;;;4992469;28;20030;-81
2023/01/21 07:16:26;;;;;;;37.35;16.90;;;4.20;99.20;;;;;;4992719;28;20034;-82
2023/01/21 07:18:52;;;;;;;37.63;16.52;;;4.20;99.10;;;;;;4992882;28;20511;-82
2023/01/21 07:21:18;;;;;;;37.50;16.98;;;4.20;99.10;;;;;;4992679;28;20042;-84
2023/01/21 07:23:45;;;;;;;42.40;16.70;;;4.10;99.10;;;;;;4992404;28;20019;-82
2023/01/21 07:26:11;;;;;;;32.55;15.30;;;4.20;99.10;;;;;;4990867;28;20128;-81
2023/01/21 07:28:37;;;;;;;37.72;16.25;;;4.10;99.00;;;;;;4992014;28;20468;-83
2023/01/21 07:31:03;;;;;;;31.50;15.40;;;4.20;99.00;;;;;;4992087;28;20053;-79
2023/01/21 07:33:28;;;;;;;36.38;15.63;;;4.20;98.90;;;;;;4991098;28;20164;-82
2023/01/21 07:35:54;;;;;;;33.22;15.77;;;4.20;98.90;;;;;;4993208;28;20113;-83
2023/01/21 07:38:20;;;;;;;37.20;16.75;;;4.10;99.10;;;;;;4993155;28;20092;-77
2023/01/21 07:40:50;;;;;;;37.78;15.30;;;4.20;99.10;;;;;;4992189;28;20365;-82
2023/01/21 07:43:16;;;;;;;34.78;15.68;;;4.10;99.00;;;;;;4992046;28;20045;-82
2023/01/21 07:45:42;;;;;;;30.83;13.65;;;4.20;98.90;;;;;;4992192;28;20034;-78
2023/01/21 07:48:09;;;;;;;33.65;14.77;;;4.20;99.00;;;;;;4992310;28;20033;-80
2023/01/21 07:50:35;;;;;;;35.90;15.88;;;4.20;99.00;;;;;;4992446;28;20026;-81
2023/01/21 07:53:01;;;;;;;40.40;17.30;;;4.10;99.10;;;;;;4992219;28;20035;-85
2023/01/21 07:55:28;;;;;;;37.20;16.60;;;4.10;99.20;;;;;;4992664;28;20030;-83
2023/01/21 07:57:57;;;;;;;43.70;17.90;;;4.20;99.20;;;;;;4996398;28;20034;-86
2023/01/21 08:00:25;;;;;;;34.38;15.05;;;4.10;99.20;;;;;;4996970;28;20030;-88
2023/01/21 08:02:55;;;;;;;41.00;15.20;;;4.20;99.20;;;;;;4997612;28;20031;-87
2023/01/21 08:05:23;;;;;;;37.55;14.95;;;4.20;99.20;;;;;;4995315;28;20044;-81
2023/01/21 08:07:50;;;;;;;30.48;14.57;;;4.20;99.10;;;;;;4996032;28;20730;-80
2023/01/21 08:10:17;;;;;;;33.60;15.82;;;4.30;99.10;;;;;;4996029;28;20022;-81
2023/01/21 08:12:43;;;;;;;31.50;14.23;;;4.30;99.20;;;;;;4995065;28;20523;-81
2023/01/21 08:15:09;;;;;;;34.45;15.63;;;4.30;99.10;;;;;;4996074;28;20084;-82
2023/01/21 08:17:39;;;;;;;33.80;15.38;;;4.40;99.00;;;;;;4996556;28;20061;-84
2023/01/21 08:20:06;;;;;;;37.50;15.98;;;4.40;98.90;;;;;;4996404;28;20551;-81
2023/01/21 08:22:32;;;;;;;36.78;15.43;;;4.40;98.90;;;;;;4995996;28;20449;-83
2023/01/21 08:24:57;;;;;;;33.17;14.82;;;4.40;98.90;;;;;;4995016;28;20050;-81
2023/01/21 08:27:23;;;;;;;33.85;15.45;;;4.40;99.00;;;;;;4995471;28;20113;-80
2023/01/21 08:29:51;;;;;;;28.98;13.88;;;4.30;99.10;;;;;;4996986;28;20022;-79
2023/01/21 08:32:16;;;;;;;34.33;15.27;;;4.50;99.10;;;;;;4995121;28;20089;-84
2023/01/21 08:34:42;;;;;;;33.92;14.70;;;4.40;99.00;;;;;;4996959;28;20515;-87
2023/01/21 08:37:08;;;;;;;33.42;14.75;;;4.40;99.10;;;;;;4996798;28;20190;-85
2023/01/21 08:39:34;;;;;;;38.53;15.13;;;4.40;99.10;;;;;;4997924;28;20030;-87
2023/01/21 08:41:59;;;;;;;33.63;14.68;;;4.40;99.10;;;;;;4998036;28;20030;-88
2023/01/21 08:44:25;;;;;;;36.33;14.27;;;4.30;99.10;;;;;;4995538;28;20038;-79
2023/01/21 08:46:55;;;;;;;39.38;15.98;;;4.30;99.10;;;;;;4995189;28;20026;-83
2023/01/21 08:49:21;;;;;;;32.80;14.10;;;4.40;99.10;;;;;;4993654;28;20507;-80
2023/01/21 08:51:48;;;;;;;33.28;15.18;;;4.40;99.10;;;;;;4994839;28;20030;-79
2023/01/21 08:54:14;;;;;;;30.83;14.48;;;4.40;99.20;;;;;;4993486;28;20452;-81
2023/01/21 08:56:39;;;;;;;34.00;15.32;;;4.40;99.20;;;;;;4996293;28;20480;-85
2023/01/21 08:59:05;;;;;;;32.25;13.93;;;4.50;99.20;;;;;;4996174;28;20065;-84
2023/01/21 09:01:32;;;;;;;35.20;15.35;;;4.50;99.00;;;;;;5002685;28;20368;-81
2023/01/21 09:03:59;;;;;;;34.28;14.57;;;4.60;99.00;;;;;;5014655;28;20088;-82
2023/01/21 09:06:27;;;;;;;34.92;15.15;;;4.50;98.90;;;;;;5014440;28;20026;-80
2023/01/21 09:08:54;;;;;;;32.28;14.50;;;4.50;99.00;;;;;;5012387;28;20029;-80
2023/01/21 09:11:20;;;;;;;32.67;13.98;;;4.50;99.10;;;;;;5014186;28;20045;-81
2023/01/21 09:13:46;;;;;;;39.25;14.48;;;4.50;99.10;;;;;;5014533;28;20034;-83
2023/01/21 09:16:14;;;;;;;33.20;15.52;;;4.60;99.10;;;;;;5012836;28;20045;-81
2023/01/21 09:18:41;;;;;;;37.85;14.75;;;4.60;99.00;;;;;;5013393;28;20030;-84
2023/01/21 09:21:08;;;;;;;32.67;15.00;;;4.60;98.90;;;;;;5012850;28;20024;-78
2023/01/21 09:23:35;;;;;;;32.72;14.80;;;4.60;98.90;;;;;;5014677;28;20026;-76
2023/01/21 09:26:12;;;;;;;31.13;14.45;;;4.60;98.90;;;;;;5013692;28;20056;-82
2023/01/21 09:28:41;;;;;;;42.83;18.17;;;4.60;99.00;;;;;;5014147;28;20026;-80
2023/01/21 09:31:10;;;;;;;67.53;28.85;;;4.60;99.00;;;;;;5013206;28;20421;-82
2023/01/21 09:33:38;;;;;;;39.35;15.52;;;4.50;99.00;;;;;;5013506;28;20353;-79
2023/01/21 09:36:06;;;;;;;60.85;24.25;;;4.50;99.00;;;;;;5015087;28;20040;-78
2023/01/21 09:38:32;;;;;;;36.03;16.02;;;4.60;99.20;;;;;;5014318;28;20117;-77
2023/01/21 09:41:36;;;;;;;37.80;15.85;;;4.50;99.30;;;;;;5014865;28;20112;-76
2023/01/21 09:44:20;;;;;;;37.38;15.27;;;4.60;99.30;;;;;;5012820;28;20041;-78
2023/01/21 09:46:54;;;;;;;30.25;14.32;;;4.60;99.10;;;;;;5015394;28;20370;-77
2023/01/21 09:49:25;;;;;;;31.60;13.23;;;4.70;99.10;;;;;;5016859;28;20486;-76
2023/01/21 09:52:21;;;;;;;29.60;13.68;;;4.70;99.00;;;;;;5017614;28;20053;-77
2023/01/21 09:54:47;;;;;;;26.98;12.90;;;4.80;98.90;;;;;;5012367;28;20041;-80
2023/01/21 09:57:37;;;;;;;32.45;14.77;;;4.80;98.80;;;;;;5017053;28;20415;-77
2023/01/21 10:00:34;;;;;;;32.08;15.85;;;4.90;98.80;;;;;;5016461;28;20117;-80
2023/01/21 10:03:11;;;;;;;34.93;15.00;;;4.80;98.70;;;;;;5014864;28;20101;-79
2023/01/21 10:06:01;;;;;;;29.77;14.02;;;4.80;98.80;;;;;;5016101;28;20065;-80
2023/01/21 10:08:54;;;;;;;31.67;13.35;;;4.90;98.90;;;;;;5017062;28;20030;-82
2023/01/21 10:11:32;;;;;;;29.80;13.00;;;4.90;98.90;;;;;;5015096;28;20045;-81
2023/01/21 10:14:19;;;;;;;33.03;15.02;;;4.90;98.80;;;;;;5015231;28;20034;-84
2023/01/21 10:17:43;;;;;;;32.97;14.38;;;4.90;98.70;;;;;;5017965;28;20049;-83
2023/01/21 10:20:14;;;;;;;31.33;13.05;;;4.90;98.60;;;;;;4999170;28;20041;-89
2023/01/21 10:23:03;;;;;;;31.55;13.20;;;4.90;98.60;;;;;;4980161;28;20097;-80
2023/01/21 10:25:32;;;;;;;29.45;13.05;;;5.00;98.80;;;;;;5012373;28;20460;-83
2023/01/21 10:28:00;;;;;;;;;;;4.90;98.70;;;;;;5015608;28;20054;-82
2023/01/21 10:30:35;;;;;;;31.98;13.07;;;4.90;98.80;;;;;;5005646;28;19929;-81
2023/01/21 10:33:00;;;;;;;30.67;13.15;;;5.00;98.80;;;;;;5010442;28;20094;-83
2023/01/21 10:35:39;;;;;;;34.72;14.52;;;5.00;98.80;;;;;;5006301;28;20046;-77
2023/01/21 10:38:28;;;;;;;36.53;15.10;;;5.10;98.70;;;;;;5002516;28;20037;-83
2023/01/21 10:41:30;;;;;;;35.58;14.77;;;5.10;98.50;;;;;;5001677;28;20035;-88
2023/01/21 10:44:18;;;;;;;29.38;12.73;;;5.10;98.40;;;;;;4997811;28;20045;-88
2023/01/21 10:47:07;;;;;;;33.58;14.80;;;5.10;98.50;;;;;;4995486;28;20042;-89
2023/01/21 10:50:10;;;;;;;33.13;15.60;;;5.10;98.50;;;;;;4994714;28;20042;-87
2023/01/21 10:52:54;;;;;;;30.55;13.60;;;5.20;98.40;;;;;;4993062;28;20030;-86
2023/01/21 10:55:57;;;;;;;32.95;15.25;;;5.20;98.40;;;;;;4994099;28;20038;-86
2023/01/21 10:58:27;;;;;;;34.35;14.88;;;5.20;98.30;;;;;;4993094;28;20050;-83
2023/01/21 11:00:56;;;;;;;35.67;15.18;;;5.30;98.20;;;;;;4993130;28;20477;-89
2023/01/21 11:03:40;;;;;;;36.80;14.77;;;5.30;98.10;;;;;;4994304;28;20056;-90
2023/01/21 11:06:09;;;;;;;44.03;15.07;;;5.30;98.00;;;;;;4993656;28;20467;-87
2023/01/21 11:08:36;;;;;;;37.83;14.98;;;5.30;97.90;;;;;;4992909;28;20065;-80
2023/01/21 11:11:04;;;;;;;33.25;13.90;;;5.40;97.90;;;;;;4991554;28;20034;-82
2023/01/21 11:13:30;;;;;;;36.90;15.55;;;5.40;97.80;;;;;;4994222;28;20117;-86
2023/01/21 11:15:57;;;;;;;34.33;13.82;;;5.50;97.60;;;;;;4992185;28;20125;-84
2023/01/21 11:18:36;;;;;;;41.33;14.73;;;5.40;97.60;;;;;;4992462;28;20026;-83
2023/01/21 11:21:20;;;;;;;37.67;13.85;;;5.40;97.60;;;;;;4992790;28;20022;-84
2023/01/21 11:24:22;;;;;;;40.65;14.75;;;5.40;97.60;;;;;;4991364;28;20034;-80
2023/01/21 11:27:19;;;;;;;34.95;14.27;;;5.50;97.40;;;;;;4992163;28;20133;-84
2023/01/21 11:29:48;;;;;;;30.33;13.15;;;5.50;97.30;;;;;;4995113;28;20040;-85
2023/01/21 11:32:20;;;;;;;36.45;13.68;;;5.40;97.40;;;;;;4991612;28;20066;-83
2023/01/21 11:34:49;;;;;;;33.70;13.23;;;5.40;97.20;;;;;;4991981;28;20030;-85
2023/01/21 11:37:36;;;;;;;32.58;13.52;;;5.40;97.40;;;;;;4994035;28;20045;-84
2023/01/21 11:40:13;;;;;;;41.97;15.13;;;5.60;97.60;;;;;;4994865;28;20440;-83
2023/01/21 11:42:53;;;;;;;30.65;13.35;;;5.40;97.40;;;;;;4992868;28;20461;-83
2023/01/21 11:45:31;;;;;;;41.60;15.23;;;5.40;97.20;;;;;;4992451;28;20034;-81
2023/01/21 11:47:58;;;;;;;39.42;13.27;;;5.40;97.40;;;;;;4993159;28;20015;-82
2023/01/21 11:50:33;;;;;;;36.63;13.63;;;5.40;97.40;;;;;;4991312;28;20387;-81
2023/01/21 11:53:13;;;;;;;36.58;13.35;;;5.40;97.40;;;;;;4992249;28;20026;-83
2023/01/21 11:55:41;;;;;;;30.70;13.27;;;5.40;97.40;;;;;;4992919;28;20030;-85
2023/01/21 11:58:19;;;;;;;;;;;5.40;97.40;;;;;;4993615;28;20031;-84
2023/01/21 12:00:46;;;;;;;36.70;13.55;;;5.40;97.40;;;;;;4993531;28;19909;-84
2023/01/21 12:03:16;;;;;;;31.95;12.63;;;5.30;97.30;;;;;;4992156;28;20034;-87
2023/01/21 12:05:46;;;;;;;30.50;12.93;;;5.40;97.40;;;;;;4992228;28;20566;-84
2023/01/21 12:08:39;;;;;;;33.15;12.20;;;5.40;97.40;;;;;;4992554;28;20358;-87
2023/01/21 12:11:07;;;;;;;32.47;11.65;;;5.50;97.20;;;;;;4992177;28;20038;-86
2023/01/21 12:13:46;;;;;;;;;;;5.50;97.20;;;;;;4994360;28;20049;-84
2023/01/21 12:16:31;;;;;;;32.63;10.75;;;5.50;97.30;;;;;;4991847;28;19918;-85
2023/01/21 12:18:57;;;;;;;37.05;11.90;;;5.50;97.50;;;;;;4992680;28;20027;-86
2023/01/21 12:21:41;;;;;;;29.55;11.05;;;5.50;97.20;;;;;;4993548;28;20083;-87
2023/01/21 12:24:07;;;;;;;35.75;12.07;;;5.70;97.30;;;;;;4993925;28;20025;-84
2023/01/21 12:26:44;;;;;;;33.50;11.45;;;5.60;97.20;;;;;;4993713;28;20050;-82
2023/01/21 12:29:43;;;;;;;31.70;12.43;;;5.60;97.10;;;;;;4993382;28;20054;-87
2023/01/21 12:32:24;;;;;;;29.35;11.10;;;5.70;97.20;;;;;;4991752;28;20270;-80
2023/01/21 12:35:23;;;;;;;29.67;11.77;;;5.70;97.00;;;;;;4994245;28;20041;-87
2023/01/21 12:37:55;;;;;;;28.75;12.10;;;5.70;96.80;;;;;;4993216;28;20039;-82
2023/01/21 12:40:26;;;;;;;38.10;12.63;;;5.80;96.70;;;;;;4992740;28;20368;-86
2023/01/21 12:42:56;;;;;;;35.58;12.90;;;5.80;96.80;;;;;;4994364;28;20034;-87
2023/01/21 12:45:29;;;;;;;35.47;11.63;;;5.80;96.70;;;;;;4998083;28;20037;-88
2023/01/21 12:48:04;;;;;;;31.65;11.75;;;5.80;96.60;;;;;;4998510;28;20080;-89
2023/01/21 12:50:32;;;;;;;28.23;11.10;;;5.80;96.60;;;;;;4998673;28;20033;-85
2023/01/21 12:53:02;;;;;;;;;;;5.90;96.70;;;;;;4998393;28;20026;-83
2023/01/21 12:55:48;;;;;;;43.42;15.68;;;5.90;96.60;;;;;;4999016;28;20341;-83
2023/01/21 12:58:17;;;;;;;26.48;11.25;;;5.90;96.70;;;;;;4996754;28;20086;-83
2023/01/21 13:00:47;;;;;;;28.58;11.20;;;6.20;96.70;;;;;;4995047;28;20366;-79
2023/01/21 13:03:34;;;;;;;24.90;10.43;;;6.10;96.80;;;;;;4996577;28;20461;-83